CDT,Max TemperatureF,Mean TemperatureF,Min TemperatureF,Max Dew PointF,MeanDew PointF,Min DewpointF,Max Humidity, Mean Humidity, Min Humidity, Max Sea Level PressureIn, Mean Sea Level PressureIn, Min Sea Level PressureIn, Max VisibilityMiles, Mean VisibilityMiles, Min VisibilityMiles, Max Wind SpeedMPH, Mean Wind SpeedMPH, Max Gust SpeedMPH,PrecipitationIn, CloudCover, Events, WindDirDegrees
2013-3-1,39,32,24,32,30,25,100,91,75,30.30,30.25,30.17,10,10,0,15,9,21,0.00,3,Fog,331
2013-3-2,57,42,26,43,35,27,100,82,54,30.29,30.18,30.06,10,10,10,16,7,21,0.00,2,,278
2013-3-3,64,48,32,45,37,32,100,77,40,30.06,29.77,29.62,10,10,10,9,7,,0.00,0,,238
2013-3-4,44,36,28,37,31,19,100,81,61,30.19,29.86,29.64,10,9,1,29,14,34,0.00,3,Rain-Snow,336
2013-3-5,42,32,23,23,20,18,80,64,39,30.35,30.28,30.19,10,10,10,28,16,36,0.00,0,,339
2013-3-6,55,39,23,32,27,21,100,73,41,30.29,30.10,29.93,10,10,10,25,14,32,0.00,0,,137
2013-3-7,53,40,26,36,31,27,100,82,50,30.00,29.95,29.89,10,10,10,15,9,,0.00,0,,92
2013-3-8,64,47,30,52,39,30,100,88,49,29.97,29.84,29.64,10,9,4,23,11,30,0.00,2,,86
2013-3-9,53,42,32,52,40,32,100,99,93,29.85,29.64,29.55,10,5,0,30,17,37,0.00,6,Fog-Rain-Snow,313
2013-3-10,32,24,14,32,22,12,100,84,64,30.07,30.01,29.85,10,8,2,30,20,39,0.00,1,,330
2013-3-11,51,32,14,36,26,12,100,77,50,30.07,29.97,29.91,10,10,10,21,9,26,0.00,3,,288
2013-3-12,46,37,28,34,27,23,100,71,40,30.31,30.24,30.08,10,10,10,24,14,32,0.00,3,,321
2013-3-13,66,47,28,36,30,23,87,59,32,30.31,30.23,30.16,10,10,10,14,6,17,0.00,1,,194
2013-3-14,73,55,37,37,34,32,81,51,23,30.23,30.16,30.09,10,10,10,17,9,18,0.00,0,,282
2013-3-15,80,58,35,37,33,32,87,47,18,30.08,29.89,29.79,10,10,10,23,10,32,0.00,0,,273
2013-3-16,50,41,32,41,33,30,93,79,66,30.06,29.98,29.86,10,10,10,17,12,20,0.00,4,,47
2013-3-17,53,42,32,41,34,32,100,82,50,29.96,29.78,29.57,10,9,0,30,14,37,0.00,5,Fog-Rain,151
2013-3-18,53,38,23,37,23,14,100,60,22,29.98,29.91,29.78,10,10,7,26,12,32,0.00,3,,330
2013-3-19,50,36,23,25,20,18,80,55,28,30.31,30.12,29.98,10,10,10,17,11,23,0.00,1,,52
2013-3-20,50,32,14,30,22,12,93,61,32,30.37,30.17,29.83,10,10,10,23,10,29,0.00,1,,137
2013-3-21,48,37,26,32,28,21,93,69,50,29.87,29.72,29.63,10,10,1,20,14,25,0.00,3,Rain-Snow,105
2013-3-22,51,38,24,34,29,25,100,73,37,29.88,29.84,29.77,10,9,0,23,9,28,0.00,4,Fog-Rain-Snow,360
2013-3-23,32,28,24,32,29,23,100,99,93,30.12,29.96,29.86,10,2,0,25,10,30,0.00,8,Snow,39
2013-3-24,30,18,5,27,16,3,100,89,74,30.21,30.15,30.11,10,10,1,17,12,20,0.00,1,Snow,310
2013-3-25,26,16,5,21,12,3,100,87,74,30.34,30.29,30.22,10,10,10,18,12,22,0.00,0,,295
2013-3-26,44,24,3,34,19,0,100,78,57,30.31,30.15,30.00,10,10,7,17,9,22,0.00,1,,227
2013-3-27,53,40,28,43,33,28,100,79,54,30.16,30.07,29.99,10,10,10,13,7,,0.00,1,,53
2013-3-28,62,47,32,41,36,32,100,69,39,30.17,30.12,30.06,10,10,10,12,6,18,0.00,1,,168
2013-3-29,69,52,35,52,43,34,100,74,40,30.14,30.09,29.97,10,10,7,18,8,28,0.00,2,,173
2013-3-30,68,54,41,48,42,37,100,71,33,30.15,30.03,29.96,10,10,3,24,11,48,0.00,2,Rain,324
2013-3-31,68,50,33,46,38,32,100,70,30,30.14,30.04,29.91,10,10,10,23,8,22,0.00,0,,277